Nearby METAR Reports

 

KCIC - Chico Municipal, California, USA
Distance from station: SSW 12mi, 20km
Updated: Sun, 16-Dec-2018 6:52pm PST
Rain, Overcast
Rain, Overcast
 Wind from SE
Wind: SE 18 mph , 30 km/h, Gust: 25 mph , 41 km/h
Temperature: 55°F , 13°C
Dew Point: 55°F , 13°C
Humidity: 100%
Barometer: 29.99 inHg , 1015.6 hPa
Summary: Rain
Clouds: Overcast
Visibility: 6 miles , 10 km
Cloud details: Mostly cloudy 1600 ft
Mostly cloudy 2200 ft
Overcast 3400 ft
2018/12/17 02:52 KCIC 170252Z 14016G22KT 6SM RA BKN016 BKN022 OVC034 13/13 A2999 RMK LAST
KOVE - Oroville, California, USA
Distance from station: SSE 31mi, 50km
Updated: Sun, 16-Dec-2018 6:53pm PST
Light rain, Overcast
Light rain, Overcast
 Wind from SSW
Wind: SSW 5 mph , 7 km/h
Temperature: 55°F , 13°C
Dew Point: 54°F , 12°C
Humidity: 94%
Barometer: 30.02 inHg , 1016.6 hPa
Summary: Light rain
Clouds: Overcast
Visibility: 10 miles , 16 km
Cloud details: Few Clouds 1800 ft
Mostly cloudy 2400 ft
Overcast 3000 ft
2018/12/17 02:53 KOVE 170253Z AUTO 20004KT 10SM -RA FEW018 BKN024 OVC030 13/12 A3002 RMK AO2 SLP167 P0007 60053 T01330117 55002
 
KRBL - Red Bluff, California, USA
Distance from station: WNW 31mi, 50km
Updated: Sun, 16-Dec-2018 6:54pm PST
Light rain, Overcast
Light rain, Overcast
 Wind from SSW
Wind: SSW 14 mph , 22 km/h
Temperature: 54°F , 12°C
Dew Point: 50°F , 10°C
Humidity: 88%
Barometer: 29.98 inHg , 1015.2 hPa
Summary: Light rain
Clouds: Overcast
Visibility: 8 miles , 13 km
Cloud details: Overcast 700 ft
2018/12/17 02:54 KRBL 170254Z AUTO 20012KT 8SM -RA OVC007 12/10 A2998 RMK AO2 RAB31 CIG 005V010 SLP151 P0000 60035 T01170100 53005
KRDD - Redding, California, USA
Distance from station: NW 50mi, 80km
Updated: Sun, 16-Dec-2018 6:53pm PST
Rain, Mist, Overcast
Rain, Mist, Overcast
 Wind from W
Wind: W 8 mph , 13 km/h
Temperature: 50°F , 10°C
Wind Chill: 47°F , 8°C
Dew Point: 48°F , 9°C
Humidity: 94%
Barometer: 29.97 inHg , 1014.9 hPa
Summary: Rain, Mist
Clouds: Overcast
Visibility: 2 1/2 miles , 2 km
Cloud details: Overcast 700 ft
2018/12/17 02:53 KRDD 170253Z 26007KT 2 1/2SM RA BR OVC007 10/09 A2997 RMK AO2 RAB18 CIG 005V010 SLP146 P0009 60018 T01000094 51010 $
 
KMYV - Marysville, California, USA
Distance from station: S 59mi, 95km
Updated: Sun, 16-Dec-2018 6:53pm PST
Rain, Mist, Overcast
Rain, Mist, Overcast
 Wind from SE
Wind: SE 21 mph , 33 km/h
Temperature: 54°F , 12°C
Dew Point: 52°F , 11°C
Humidity: 94%
Barometer: 30.03 inHg , 1016.9 hPa
Summary: Rain, Mist
Clouds: Overcast
Visibility: 5 miles , 8 km
Cloud details: Few Clouds 1700 ft
Mostly cloudy 6000 ft
Overcast 7500 ft
2018/12/17 02:53 KMYV 170253Z AUTO 13018KT 5SM RA BR FEW017 BKN060 OVC075 12/11 A3003 RMK AO2 SLP171 P0019 60058 T01170106 58000 $
KBAB - Beale Afb/Marysv, California, USA
Distance from station: SSE 59mi, 96km
Updated: Sun, 16-Dec-2018 6:41pm PST
Rain, Mist, Overcast
Rain, Mist, Overcast
 Wind from SE
Wind: SE 17 mph , 28 km/h, Gust: 24 mph , 39 km/h
Temperature: 54°F , 12°C
Dew Point: 52°F , 11°C
Humidity: 94%
Barometer: 30.03 inHg , 1016.9 hPa
Summary: Rain, Mist
Clouds: Overcast
Visibility: 2 miles , 3 km
Cloud details: Few Clouds 200 ft
Few Clouds 700 ft
Overcast 3600 ft
2018/12/17 02:41 KBAB 170241Z AUTO 14015G21KT 2SM RA BR FEW002 FEW007 OVC036 12/11 A3003 RMK AO2 SLP172 $
 
KGOO - Grass Valley, California, USA
Distance from station: SE 63mi, 102km
Updated: Sun, 16-Dec-2018 6:35pm PST
Overcast
Overcast
 Wind from SE
Wind: SE 8 mph , 13 km/h
Temperature: 43°F , 6°C
Wind Chill: 38°F , 3°C
Dew Point: 41°F , 5°C
Humidity: 93%
Barometer: 30.07 inHg , 1018.3 hPa
Clouds: Overcast
Visibility: 4 miles , 6 km
Cloud details: Mostly cloudy 300 ft
Overcast 800 ft
2018/12/17 02:35 KGOO 170235Z AUTO 13007KT 4SM BKN003 OVC008 06/05 A3007 RMK AO1 P0015
KBLU - Emigrant Gap, California, USA
Distance from station: SE 71mi, 115km
Updated: Sun, 16-Dec-2018 6:52pm PST
Light snow, Mist, Overcast
Light snow, Mist, Overcast
 Wind from SSE
Wind: SSE 12 mph , 19 km/h, Gust: 21 mph , 33 km/h
Temperature: 36°F , 2°C
Wind Chill: 28°F , -2°C
Dew Point: 32°F , 0°C
Humidity: 87%
Barometer: 30.10 inHg , 1019.3 hPa
Summary: Light snow, Mist
Clouds: Overcast
Visibility: 5 miles , 8 km
Cloud details: Overcast 2000 ft
2018/12/17 02:52 KBLU 170252Z AUTO 15010G18KT 5SM -SN BR OVC020 02/00 A3010 RMK AO2 RAE36SNB36 SLP181 P0000 60000 T00220000 53004
 
KLHM - Lincoln, California, USA
Distance from station: SSE 74mi, 119km
Updated: Sun, 16-Dec-2018 6:55pm PST
Overcast
Overcast
 Wind from SE
Wind: SE 15 mph , 24 km/h, Gust: 21 mph , 33 km/h
Temperature: 52°F , 11°C
Dew Point: 50°F , 10°C
Humidity: 94%
Barometer: 30.04 inHg , 1017.3 hPa
Clouds: Overcast
Visibility: 7 miles , 11 km
Cloud details: Partly cloudy 4100 ft
Mostly cloudy 4800 ft
Overcast 5000 ft
2018/12/17 02:55 KLHM 170255Z AUTO 13013G18KT 7SM SCT041 BKN048 OVC050 11/10 A3004 RMK AO1 P0001
KAUN - Auburn Muni, California, USA
Distance from station: SSE 77mi, 123km
Updated: Sun, 16-Dec-2018 6:35pm PST
Mist, Overcast
Mist, Overcast
 Wind from ESE
Wind: ESE 13 mph , 20 km/h
Temperature: 50°F , 10°C
Wind Chill: 45°F , 7°C
Dew Point: 46°F , 8°C
Humidity: 88%
Barometer: 30.06 inHg , 1017.9 hPa
Summary: Mist
Clouds: Overcast
Visibility: 4 miles , 6 km
Cloud details: Few Clouds 1900 ft
Mostly cloudy 3400 ft
Overcast 5500 ft
2018/12/17 02:35 KAUN 170235Z AUTO 11011KT 4SM BR FEW019 BKN034 OVC055 10/08 A3006 RMK A01
 
KO54 - Weaverville, California, USA
Distance from station: NW 84mi, 135km
Updated: Sun, 16-Dec-2018 6:35pm PST
Overcast
Overcast
 Wind from calm
Wind: Calm
Temperature: 46°F , 8°C
Dew Point: 45°F , 7°C
Humidity: 93%
Barometer: 29.95 inHg , 1014.2 hPa
Clouds: Overcast
Visibility: 3 miles , 5 km
Cloud details: Overcast 6500 ft
2018/12/17 02:35 KO54 170235Z AUTO 00000KT 3SM OVC065 08/07 A2995 RMK AO1
KSMF - Sacramento/Metro, California, USA
Distance from station: S 86mi, 139km
Updated: Sun, 16-Dec-2018 6:53pm PST
Rain, Mist, Overcast
Rain, Mist, Overcast
 Wind from SSE
Wind: SSE 9 mph , 15 km/h
Temperature: 54°F , 12°C
Dew Point: 52°F , 11°C
Humidity: 94%
Barometer: 30.04 inHg , 1017.3 hPa
Summary: Rain, Mist
Clouds: Overcast
Visibility: 3 miles , 5 km
Cloud details: Mostly cloudy 600 ft
Overcast 4000 ft
2018/12/17 02:53 KSMF 170253Z 15008KT 3SM RA BR BKN006 OVC040 12/11 A3004 RMK AO2 SLP171 P0017 60050 T01170111 53008 $
 
KMCC - Mcclellan Afb, California, USA
Distance from station: SSE 90mi, 145km
Updated: Sun, 16-Dec-2018 6:30pm PST
Light rain
Light rain
 Wind from SE
Wind: SE 15 mph , 24 km/h
Temperature: 52°F , 11°C
Dew Point: 52°F , 11°C
Humidity: 100%
Barometer: 30.07 inHg , 1018.3 hPa
Summary: Light rain
Visibility: 2 miles , 3 km
2018/12/17 02:30 KMCC 170230Z AUTO 13013KT 2SM -RA 11/11 A3007 RMK AO2
KTRK - Truckee Tahoe, California, USA
Distance from station: ESE 96mi, 155km
Updated: Sun, 16-Dec-2018 6:35pm PST
Clear
Clear
 Wind from SSW
Wind: SSW 22 mph , 35 km/h, Gust: 25 mph , 41 km/h
Temperature: 41°F , 5°C
Wind Chill: 31°F , -1°C
Dew Point: 27°F , -3°C
Humidity: 57%
Barometer: 30.06 inHg , 1017.9 hPa
Clouds: Clear
Visibility: 10 miles , 16 km
2018/12/17 02:35 KTRK 170235Z AUTO 20019G22KT 10SM CLR 05/M03 A3006 RMK AO2
 
KUKI - Ukiah, California, USA
Distance from station: SW 97mi, 156km
Updated: Sun, 16-Dec-2018 6:56pm PST
Light rain, Overcast
Light rain, Overcast
 Wind from W
Wind: W 3 mph , 6 km/h
Temperature: 50°F , 10°C
Dew Point: 48°F , 9°C
Humidity: 94%
Barometer: 30.00 inHg , 1015.9 hPa
Summary: Light rain
Clouds: Overcast
Visibility: 9 miles , 14 km
Cloud details: Mostly cloudy 1600 ft
Overcast 4200 ft
2018/12/17 02:56 KUKI 170256Z AUTO 27003KT 9SM -RA BKN016 OVC042 10/09 A3000 RMK AO2 SLP155 P0003 60018 T01000089 51017
KEDU - Davis, California, USA
Distance from station: S 97mi, 157km
Updated: Sun, 16-Dec-2018 6:35pm PST
Overcast
Overcast
 Wind from SSE
Wind: SSE 7 mph , 11 km/h
Temperature: 54°F , 12°C
Dew Point: 52°F , 11°C
Humidity: 94%
Barometer: 30.04 inHg , 1017.3 hPa
Clouds: Overcast
Visibility: 3 miles , 5 km
Cloud details: Partly cloudy 400 ft
Mostly cloudy 2400 ft
Overcast 3400 ft
2018/12/17 02:35 KEDU 170235Z AUTO 15006KT 3SM SCT004 BKN024 OVC034 12/11 A3004 RMK AO1 P0004
 
KMHR - Mather Field, California, USA
Distance from station: SSE 100mi, 161km
Updated: Sun, 16-Dec-2018 6:45pm PST
Light rain, Mostly cloudy
Light rain, Mostly cloudy
 Wind from E
Wind: E 8 mph , 13 km/h
Temperature: 52°F , 11°C
Dew Point: 50°F , 10°C
Humidity: 94%
Barometer: 30.06 inHg , 1017.9 hPa
Summary: Light rain
Clouds: Mostly cloudy
Visibility: 3 miles , 5 km
Cloud details: Few Clouds 300 ft
Partly cloudy 900 ft
Mostly cloudy 3000 ft
2018/12/17 02:45 KMHR 170245Z 08007KT 3SM -RA FEW003 SCT009 BKN030 11/10 A3006
KMHS - Mount Shasta, California, USA
Distance from station: NNW 100mi, 161km
Updated: Sun, 16-Dec-2018 6:56pm PST
Light rain, Overcast
Light rain, Overcast
 Wind from calm
Wind: Calm
Temperature: 43°F , 6°C
Dew Point: 39°F , 4°C
Humidity: 87%
Barometer: 29.94 inHg , 1013.9 hPa
Summary: Light rain
Clouds: Overcast
Visibility: 7 miles , 11 km
Cloud details: Mostly cloudy 1100 ft
Mostly cloudy 1600 ft
Overcast 2200 ft
2018/12/17 02:56 KMHS 170256Z AUTO 00000KT 7SM -RA BKN011 BKN016 OVC022 06/04 A2994 RMK AO2 RAE25B38 SLP160 P0002 60014 T00560044 53007
 
KRTS - Reno/Stead, Nevada, USA
Distance from station: E 100mi, 161km
Updated: Sun, 16-Dec-2018 6:35pm PST
Overcast
Overcast
 Wind from SW
Wind: SW 12 mph , 19 km/h, Gust: 26 mph , 43 km/h
Temperature: 48°F , 9°C
Wind Chill: 43°F , 6°C
Dew Point: 27°F , -3°C
Humidity: 43%
Barometer: 30.04 inHg , 1017.3 hPa
Clouds: Overcast
Visibility: 10 miles , 16 km
Cloud details: Overcast 6000 ft
2018/12/17 02:35 KRTS 170235Z AUTO 23010G23KT 10SM OVC060 09/M03 A3004 RMK AO2
KSAC - Sacramento, California, USA
Distance from station: S 100mi, 162km
Updated: Sun, 16-Dec-2018 6:53pm PST
Rain, Mist, Overcast
Rain, Mist, Overcast
 Wind from SE
Wind: SE 9 mph , 15 km/h
Temperature: 54°F , 12°C
Dew Point: 54°F , 12°C
Humidity: 100%
Barometer: 30.05 inHg , 1017.6 hPa
Summary: Rain, Mist
Clouds: Overcast
Visibility: 2 miles , 3 km
Cloud details: Overcast 6500 ft
2018/12/17 02:53 KSAC 170253Z 13008KT 2SM RA BR OVC065 12/12 A3005 RMK AO2 SLP174 P0017 60058 T01170117 51007